createdAt,value
2019-02-22T00:02:13.837Z,101.43
2019-02-22T00:04:43.549Z,107.33
2019-02-22T00:07:13.157Z,111.10
2019-02-22T00:09:49.348Z,110.80
2019-02-22T00:12:14.059Z,123.27
2019-02-22T00:14:43.599Z,111.13
2019-02-22T00:17:15.196Z,127.97
2019-02-22T00:19:44.730Z,122.00
2019-02-22T00:22:14.312Z,123.00
2019-02-22T00:24:43.923Z,120.73
2019-02-22T00:27:13.513Z,116.67
2019-02-22T00:29:43.044Z,127.30
2019-02-22T00:32:12.602Z,118.03
2019-02-22T00:34:42.155Z,129.33
2019-02-22T00:37:11.936Z,116.80
2019-02-22T00:39:41.994Z,127.17
2019-02-22T00:42:11.659Z,122.83
2019-02-22T00:44:41.341Z,113.07
2019-02-22T00:47:10.957Z,123.37
2019-02-22T00:49:43.605Z,111.27
2019-02-22T00:52:13.691Z,101.60
2019-02-22T00:54:43.928Z,109.60
2019-02-22T00:57:13.597Z,104.87
2019-02-22T01:00:02.513Z,105.83
2019-02-22T01:02:32.157Z,91.10
2019-02-22T01:05:01.937Z,94.27
2019-02-22T01:07:32.516Z,98.87
2019-02-22T01:10:02.140Z,95.70
2019-02-22T01:12:32.397Z,93.63
2019-02-22T01:15:02.892Z,93.57
2019-02-22T01:17:32.598Z,87.07
2019-02-22T01:20:03.226Z,84.57
2019-02-22T01:22:32.858Z,82.53
2019-02-22T01:25:02.512Z,97.23
2019-02-22T01:27:32.103Z,83.67
2019-02-22T01:30:01.678Z,90.50
2019-02-22T01:32:31.291Z,100.03
2019-02-22T01:35:00.816Z,94.17
2019-02-22T01:37:30.644Z,95.00
2019-02-22T01:40:00.258Z,81.63
2019-02-22T01:42:29.851Z,93.37
2019-02-22T01:44:59.499Z,100.47
2019-02-22T01:47:29.157Z,84.83
2019-02-22T01:49:58.717Z,90.33
2019-02-22T01:52:28.281Z,83.33
2019-02-22T01:55:00.831Z,94.30
2019-02-22T01:57:30.517Z,83.60
2019-02-22T02:00:00.422Z,82.27
2019-02-22T02:02:30.214Z,85.93
2019-02-22T02:04:59.802Z,76.77
2019-02-22T02:07:31.134Z,73.77
2019-02-22T02:10:00.807Z,88.13
2019-02-22T02:12:30.406Z,79.47
2019-02-22T02:15:00.332Z,82.40
2019-02-22T02:17:30.203Z,78.57
2019-02-22T02:19:59.749Z,75.27
2019-02-22T02:22:31.658Z,81.17
2019-02-22T02:25:01.294Z,73.10
2019-02-22T02:27:31.109Z,97.73
2019-02-22T02:30:00.684Z,90.60
2019-02-22T02:32:30.377Z,74.97
2019-02-22T02:34:59.981Z,86.27
2019-02-22T02:37:29.549Z,84.63
2019-02-22T02:39:59.153Z,89.90
2019-02-22T02:42:28.765Z,71.60
2019-02-22T02:44:58.687Z,69.00
2019-02-22T02:47:28.244Z,79.90
2019-02-22T02:49:57.892Z,73.97
2019-02-22T02:52:28.577Z,73.43
2019-02-22T02:54:58.701Z,84.53
2019-02-22T02:57:29.947Z,76.10
2019-02-22T03:00:01.419Z,71.10
2019-02-22T03:02:31.886Z,83.27
2019-02-22T03:05:01.438Z,71.87
2019-02-22T03:07:41.773Z,74.47
2019-02-22T03:10:11.392Z,64.63
2019-02-22T03:12:40.982Z,65.53
2019-02-22T03:15:17.528Z,69.00
2019-02-22T03:17:47.116Z,77.00
2019-02-22T03:20:16.638Z,69.80
2019-02-22T03:22:49.022Z,66.17
2019-02-22T03:25:18.727Z,60.80
2019-02-22T03:27:48.315Z,55.50
2019-02-22T03:30:23.562Z,59.10
2019-02-22T03:32:54.724Z,63.37
2019-02-22T03:35:25.860Z,60.10
2019-02-22T03:37:55.774Z,72.30
2019-02-22T03:40:25.321Z,55.50
2019-02-22T03:42:54.925Z,60.07
2019-02-22T03:45:26.721Z,53.00
2019-02-22T03:47:56.258Z,69.47
2019-02-22T03:50:25.845Z,59.83
2019-02-22T03:52:57.102Z,53.90
2019-02-22T03:55:26.768Z,59.37
2019-02-22T03:57:56.405Z,60.37
2019-02-22T04:00:26.174Z,57.70
2019-02-22T04:02:55.791Z,57.10
2019-02-22T04:05:25.477Z,58.23
2019-02-22T04:07:58.027Z,56.50
2019-02-22T04:10:29.634Z,57.60
2019-02-22T04:12:59.342Z,58.60
2019-02-22T04:15:28.973Z,53.80
2019-02-22T04:18:02.878Z,52.00
2019-02-22T04:20:32.632Z,57.50
2019-02-22T04:23:03.123Z,46.10
2019-02-22T04:25:35.234Z,50.30
2019-02-22T04:28:05.055Z,51.37
2019-02-22T04:30:37.737Z,47.50
2019-02-22T04:33:06.212Z,54.67
2019-02-22T04:35:36.930Z,54.43
2019-02-22T04:38:26.913Z,50.17
2019-02-22T04:40:59.447Z,47.93
2019-02-22T04:43:29.044Z,28.67
2019-02-22T04:46:01.449Z,28.20
2019-02-22T04:48:31.056Z,24.43
2019-02-22T04:51:00.794Z,14.73
2019-02-22T04:53:30.943Z,12.60
2019-02-22T04:56:01.090Z,11.87
2019-02-22T04:58:30.754Z,12.20
2019-02-22T05:01:00.512Z,13.63
2019-02-22T05:03:30.138Z,10.00
2019-02-22T05:06:00.249Z,8.33
2019-02-22T05:08:29.907Z,8.97
2019-02-22T05:10:59.464Z,7.73
2019-02-22T05:13:29.182Z,10.60
2019-02-22T05:16:02.235Z,13.43
2019-02-22T05:18:32.004Z,10.80
2019-02-22T05:21:01.593Z,7.73
2019-02-22T05:23:31.336Z,9.40
2019-02-22T05:26:00.958Z,7.83
2019-02-22T05:28:30.728Z,7.23
2019-02-22T05:31:19.840Z,8.37
2019-02-22T05:33:50.224Z,9.23
2019-02-22T05:36:19.847Z,11.93
2019-02-22T05:38:49.496Z,7.60
2019-02-22T05:41:19.194Z,6.97
2019-02-22T05:43:48.725Z,8.43
2019-02-22T05:46:19.392Z,8.87
2019-02-22T05:48:52.011Z,7.27
2019-02-22T05:51:21.713Z,12.13
2019-02-22T05:53:51.613Z,10.53
2019-02-22T05:56:21.272Z,7.50
2019-02-22T05:58:51.765Z,9.07
2019-02-22T06:01:21.562Z,7.43
2019-02-22T06:03:51.151Z,6.80
2019-02-22T06:06:20.791Z,7.27
2019-02-22T06:08:50.373Z,9.40
2019-02-22T06:11:20.003Z,7.20
2019-02-22T06:13:49.744Z,7.77
2019-02-22T06:16:20.427Z,7.70
2019-02-22T06:18:50.111Z,7.67
2019-02-22T06:21:19.790Z,12.40
2019-02-22T06:23:49.436Z,7.77
2019-02-22T06:26:19.055Z,8.77
2019-02-22T06:28:48.679Z,8.30
2019-02-22T06:31:18.679Z,10.40
2019-02-22T06:33:48.293Z,8.90
2019-02-22T06:36:17.826Z,12.47
2019-02-22T06:38:47.708Z,10.67
2019-02-22T06:41:17.314Z,13.40
2019-02-22T06:43:46.857Z,10.00
2019-02-22T06:46:16.509Z,11.40
2019-02-22T06:48:46.114Z,11.93
2019-02-22T06:51:15.751Z,13.67
2019-02-22T06:53:45.400Z,15.47
2019-02-22T06:56:14.982Z,16.30
2019-02-22T06:58:44.568Z,14.70
2019-02-22T07:01:14.686Z,16.30
2019-02-22T07:03:44.223Z,12.83
2019-02-22T07:06:13.965Z,13.30
2019-02-22T07:08:43.611Z,12.80
2019-02-22T07:11:15.414Z,11.97
2019-02-22T07:13:44.924Z,8.23
2019-02-22T07:16:14.770Z,15.23
2019-02-22T07:18:44.442Z,6.63
2019-02-22T07:21:14.110Z,7.43
2019-02-22T07:23:43.814Z,7.10
2019-02-22T07:26:13.427Z,6.53
2019-02-22T07:28:42.955Z,6.30
2019-02-22T07:31:12.848Z,6.97
2019-02-22T07:33:42.560Z,13.70
2019-02-22T07:36:13.768Z,7.80
2019-02-22T07:38:43.635Z,7.83
2019-02-22T07:41:14.830Z,8.40
2019-02-22T07:43:45.900Z,10.87
2019-02-22T07:46:15.463Z,10.53
2019-02-22T07:48:45.123Z,9.23
2019-02-22T07:51:14.827Z,10.03
2019-02-22T07:53:44.969Z,6.60
2019-02-22T07:56:14.746Z,7.40
2019-02-22T07:58:47.122Z,5.87
2019-02-22T08:01:16.837Z,6.77
2019-02-22T08:03:46.500Z,5.53
2019-02-22T08:06:16.264Z,14.93
2019-02-22T08:08:51.348Z,7.60
2019-02-22T08:11:21.239Z,4.50
2019-02-22T08:13:51.023Z,4.47
2019-02-22T08:16:20.827Z,3.83
2019-02-22T08:19:00.887Z,12.07
2019-02-22T08:21:22.038Z,3.80
2019-02-22T08:23:52.165Z,3.47
2019-02-22T08:26:21.769Z,4.20
2019-02-22T08:28:51.458Z,8.25
2019-02-22T08:31:21.178Z,3.10
2019-02-22T08:33:51.288Z,7.20
2019-02-22T08:36:20.932Z,3.37
2019-02-22T08:38:50.667Z,6.70
2019-02-22T08:41:20.358Z,4.00
2019-02-22T08:43:50.129Z,3.80
2019-02-22T08:46:20.609Z,6.53
2019-02-22T08:48:50.489Z,6.20
2019-02-22T08:51:21.893Z,3.23
2019-02-22T08:53:51.692Z,4.80
2019-02-22T08:56:21.638Z,4.20
2019-02-22T08:58:51.410Z,3.27
2019-02-22T09:01:21.990Z,3.80
2019-02-22T09:03:51.850Z,3.70
2019-02-22T09:06:21.674Z,3.00
2019-02-22T09:08:51.326Z,3.77
2019-02-22T09:11:21.067Z,4.93
2019-02-22T09:13:50.797Z,2.77
2019-02-22T09:16:20.453Z,3.50
2019-02-22T09:18:52.233Z,3.10
2019-02-22T09:21:21.398Z,3.00
2019-02-22T09:23:51.298Z,4.73
2019-02-22T09:26:20.950Z,3.30
2019-02-22T09:28:50.559Z,2.57
2019-02-22T09:31:20.250Z,2.07
2019-02-22T09:33:52.751Z,4.90
2019-02-22T09:36:22.508Z,1.93
2019-02-22T09:38:52.169Z,2.30
2019-02-22T09:41:24.536Z,1.55
2019-02-22T09:43:55.855Z,2.33
2019-02-22T09:46:25.635Z,4.03
2019-02-22T09:48:55.341Z,4.92
2019-02-22T09:51:24.911Z,14.00
2019-02-22T09:53:54.585Z,2.00
2019-02-22T09:56:24.230Z,4.00
2019-02-22T09:58:53.964Z,2.27
2019-02-22T10:01:23.682Z,2.40
2019-02-22T10:03:53.318Z,1.27
2019-02-22T10:06:23.376Z,2.60
2019-02-22T10:08:53.044Z,2.20
2019-02-22T10:11:22.691Z,6.60
2019-02-22T10:13:52.381Z,2.70
2019-02-22T10:16:22.219Z,2.20
2019-02-22T10:18:52.002Z,6.60
2019-02-22T10:21:21.562Z,2.50
2019-02-22T10:23:51.180Z,1.90
2019-02-22T10:26:21.560Z,3.47
2019-02-22T10:28:52.502Z,1.70
2019-02-22T10:31:22.170Z,3.83
2019-02-22T10:33:51.759Z,1.80
2019-02-22T10:36:23.644Z,2.30
2019-02-22T10:38:53.312Z,6.63
2019-02-22T10:41:22.962Z,3.90
2019-02-22T10:43:52.775Z,3.53
2019-02-22T10:46:22.639Z,2.20
2019-02-22T10:48:52.325Z,1.90
2019-02-22T10:51:22.424Z,2.67
2019-02-22T10:53:52.039Z,10.17
2019-02-22T10:56:21.644Z,4.27
2019-02-22T10:58:51.445Z,3.33
2019-02-22T11:01:21.210Z,9.13
2019-02-22T11:03:50.962Z,4.93
2019-02-22T11:06:20.586Z,2.07
2019-02-22T11:08:50.308Z,3.43
2019-02-22T11:11:19.917Z,5.60
2019-02-22T11:13:49.659Z,3.50
2019-02-22T11:16:19.295Z,9.43
2019-02-22T11:18:49.038Z,2.17
2019-02-22T11:21:18.729Z,2.90
2019-02-22T11:23:48.289Z,3.43
2019-02-22T11:26:17.872Z,5.90
2019-02-22T11:28:47.483Z,4.33
2019-02-22T11:31:17.438Z,3.90
2019-02-22T11:33:47.433Z,2.10
2019-02-22T11:36:17.125Z,2.47
2019-02-22T11:38:47.623Z,3.33
2019-02-22T11:41:17.181Z,2.33
2019-02-22T11:43:47.028Z,2.43
2019-02-22T11:46:16.630Z,2.60
2019-02-22T11:48:46.718Z,6.30
2019-02-22T11:51:16.557Z,3.43
2019-02-22T11:53:46.234Z,2.57
2019-02-22T11:56:15.841Z,4.40
2019-02-22T11:58:45.937Z,8.53
2019-02-22T12:01:16.107Z,2.97
2019-02-22T12:03:45.789Z,2.40
2019-02-22T12:06:15.423Z,2.57
2019-02-22T12:08:45.207Z,2.50
2019-02-22T12:11:14.858Z,2.53
2019-02-22T12:13:44.417Z,3.53
2019-02-22T12:16:14.418Z,2.53
2019-02-22T12:18:44.024Z,13.33
2019-02-22T12:21:13.766Z,9.97
2019-02-22T12:23:43.367Z,2.47
2019-02-22T12:26:13.037Z,7.90
2019-02-22T12:28:44.116Z,2.57
2019-02-22T12:31:13.797Z,3.53
2019-02-22T12:33:43.616Z,2.67
2019-02-22T12:36:13.169Z,5.77
2019-02-22T12:38:42.715Z,2.70
2019-02-22T12:41:12.390Z,2.30
2019-02-22T12:43:42.167Z,2.53
2019-02-22T12:46:11.774Z,2.40
2019-02-22T12:48:41.315Z,12.60
2019-02-22T12:51:11.020Z,2.20
2019-02-22T12:53:40.682Z,3.27
2019-02-22T12:56:10.323Z,2.90
2019-02-22T12:58:39.889Z,2.70
2019-02-22T13:01:09.831Z,2.67
2019-02-22T13:03:39.666Z,3.27
2019-02-22T13:06:09.475Z,3.23
2019-02-22T13:08:39.170Z,2.63
2019-02-22T13:11:12.095Z,3.20
2019-02-22T13:13:41.819Z,4.13
2019-02-22T13:16:11.378Z,3.37
2019-02-22T13:18:40.980Z,4.37
2019-02-22T13:21:10.761Z,5.33
2019-02-22T13:23:40.306Z,4.50
2019-02-22T13:26:10.076Z,4.43
2019-02-22T13:28:39.775Z,4.53
2019-02-22T13:31:09.413Z,5.60
2019-02-22T13:33:41.699Z,12.87
2019-02-22T13:36:14.587Z,5.17
2019-02-22T13:38:44.270Z,4.67
2019-02-22T13:41:13.929Z,5.40
2019-02-22T13:43:43.768Z,4.70
2019-02-22T13:46:13.481Z,5.13
2019-02-22T13:48:43.055Z,7.23
2019-02-22T13:51:12.753Z,6.20
2019-02-22T13:53:42.308Z,4.97
2019-02-22T13:56:11.892Z,6.30
2019-02-22T13:58:41.898Z,5.13
2019-02-22T14:01:11.600Z,8.17
2019-02-22T14:03:41.271Z,6.20
2019-02-22T14:06:10.887Z,5.37
2019-02-22T14:08:42.479Z,5.73
2019-02-22T14:11:12.166Z,9.10
2019-02-22T14:13:41.904Z,5.27
2019-02-22T14:16:11.539Z,5.80
2019-02-22T14:18:41.308Z,6.07
2019-02-22T14:21:11.404Z,5.40
2019-02-22T14:23:41.211Z,5.33
2019-02-22T14:26:10.923Z,6.60
2019-02-22T14:28:40.571Z,5.90
2019-02-22T14:31:10.155Z,5.90
2019-02-22T14:33:42.831Z,6.20
2019-02-22T14:36:12.711Z,6.73
2019-02-22T14:38:50.415Z,5.67
2019-02-22T14:41:20.466Z,5.00
2019-02-22T14:43:51.683Z,5.13
2019-02-22T14:46:25.843Z,7.10
2019-02-22T14:48:52.839Z,5.40
2019-02-22T14:51:22.530Z,5.83
2019-02-22T14:53:52.346Z,5.47
2019-02-22T14:56:22.265Z,4.93
2019-02-22T14:58:51.877Z,5.57
2019-02-22T15:01:21.428Z,5.00
2019-02-22T15:03:51.295Z,7.33
2019-02-22T15:06:20.870Z,4.83
2019-02-22T15:08:50.757Z,8.10
2019-02-22T15:11:20.503Z,4.90
2019-02-22T15:13:50.060Z,5.50
2019-02-22T15:16:21.270Z,5.30
2019-02-22T15:18:51.326Z,6.03
2019-02-22T15:21:20.912Z,6.60
2019-02-22T15:23:50.448Z,5.90
2019-02-22T15:26:20.193Z,5.73
2019-02-22T15:28:49.849Z,6.03
2019-02-22T15:31:19.415Z,5.53
2019-02-22T15:33:49.168Z,5.43
2019-02-22T15:36:18.754Z,7.07
2019-02-22T15:38:48.331Z,5.63
2019-02-22T15:41:18.065Z,6.50
2019-02-22T15:43:48.803Z,6.57
2019-02-22T15:46:18.573Z,5.70
2019-02-22T15:48:48.168Z,5.70
2019-02-22T15:51:17.696Z,7.17
2019-02-22T15:53:47.283Z,5.63
2019-02-22T15:56:18.433Z,5.47
2019-02-22T15:58:48.653Z,5.40
2019-02-22T16:01:18.409Z,6.47
2019-02-22T16:03:53.228Z,5.20
2019-02-22T16:06:23.134Z,5.63
2019-02-22T16:08:52.981Z,5.20
2019-02-22T16:11:23.262Z,6.30
2019-02-22T16:13:53.415Z,5.90
2019-02-22T16:16:23.624Z,7.93
2019-02-22T16:18:54.022Z,8.37
2019-02-22T16:21:23.777Z,6.10
2019-02-22T16:23:53.429Z,5.90
2019-02-22T16:26:24.629Z,8.40
2019-02-22T16:28:54.212Z,6.83
2019-02-22T16:31:23.942Z,6.20
2019-02-22T16:33:53.610Z,6.03
2019-02-22T16:36:23.209Z,5.80
2019-02-22T16:38:52.818Z,11.43
2019-02-22T16:41:23.603Z,5.83
2019-02-22T16:43:53.482Z,6.63
2019-02-22T16:46:34.227Z,8.23
2019-02-22T16:48:54.557Z,6.50
2019-02-22T16:51:24.285Z,6.50
2019-02-22T16:53:53.920Z,10.77
2019-02-22T16:56:23.609Z,14.63
2019-02-22T16:58:53.289Z,10.57
2019-02-22T17:01:23.022Z,8.10
2019-02-22T17:03:53.038Z,7.60
2019-02-22T17:06:22.917Z,7.00
2019-02-22T17:08:52.541Z,10.10
2019-02-22T17:11:22.662Z,8.20
2019-02-22T17:13:52.229Z,8.93
2019-02-22T17:16:21.830Z,7.93
2019-02-22T17:18:51.482Z,9.43
2019-02-22T17:21:21.186Z,13.17
2019-02-22T17:23:50.705Z,10.70
2019-02-22T17:26:20.375Z,17.73
2019-02-22T17:28:50.025Z,14.60
2019-02-22T17:31:19.543Z,11.37
2019-02-22T17:33:49.303Z,12.17
2019-02-22T17:36:26.440Z,8.80
2019-02-22T17:38:50.373Z,10.93
2019-02-22T17:41:19.980Z,7.93
2019-02-22T17:43:49.781Z,8.57
2019-02-22T17:46:19.530Z,7.90
2019-02-22T17:48:49.645Z,7.67
2019-02-22T17:51:19.407Z,13.33
2019-02-22T17:53:49.186Z,8.13
2019-02-22T17:56:18.841Z,13.10
2019-02-22T17:58:48.612Z,15.63
2019-02-22T18:01:18.779Z,8.80
2019-02-22T18:03:48.684Z,5.80
2019-02-22T18:06:18.299Z,12.10
2019-02-22T18:08:47.960Z,11.50
2019-02-22T18:11:18.681Z,18.17
2019-02-22T18:13:48.267Z,8.40
2019-02-22T18:16:17.876Z,7.97
2019-02-22T18:18:47.522Z,7.57
2019-02-22T18:21:17.205Z,7.20
2019-02-22T18:23:47.077Z,8.70
2019-02-22T18:26:17.154Z,10.07
2019-02-22T18:28:47.049Z,8.67
2019-02-22T18:31:16.718Z,7.20
2019-02-22T18:33:46.778Z,6.30
2019-02-22T18:36:16.493Z,11.30
2019-02-22T18:38:46.168Z,7.17
2019-02-22T18:41:15.872Z,7.13
2019-02-22T18:43:45.496Z,7.87
2019-02-22T18:46:15.096Z,9.73
2019-02-22T18:48:44.831Z,8.80
2019-02-22T18:51:14.501Z,8.00
2019-02-22T18:53:44.101Z,8.70
2019-02-22T18:56:13.904Z,8.27
2019-02-22T18:58:43.528Z,11.90
2019-02-22T19:01:13.281Z,8.20
2019-02-22T19:03:42.980Z,14.50
2019-02-22T19:06:12.577Z,13.93
2019-02-22T19:08:42.247Z,9.03
2019-02-22T19:11:11.883Z,18.33
2019-02-22T19:13:41.778Z,10.23
2019-02-22T19:16:11.767Z,14.33
2019-02-22T19:18:41.418Z,10.60
2019-02-22T19:21:11.380Z,8.10
2019-02-22T19:23:41.841Z,13.67
2019-02-22T19:26:12.442Z,9.20
2019-02-22T19:28:42.547Z,9.07
2019-02-22T19:31:12.186Z,9.30
2019-02-22T19:33:43.622Z,13.68
2019-02-22T19:36:13.900Z,11.33
2019-02-22T19:38:43.668Z,13.10
2019-02-22T19:41:13.870Z,10.95
2019-02-22T19:43:43.730Z,9.40
2019-02-22T19:46:13.529Z,10.60
2019-02-22T19:48:43.172Z,12.47
2019-02-22T19:51:12.991Z,13.03
2019-02-22T19:53:42.643Z,20.45
2019-02-22T19:56:12.654Z,14.25
2019-02-22T19:58:43.291Z,12.70
2019-02-22T20:01:13.239Z,10.13
2019-02-22T20:03:43.072Z,9.98
2019-02-22T20:06:12.989Z,9.75
2019-02-22T20:08:42.641Z,8.45
2019-02-22T20:11:12.365Z,6.70
2019-02-22T20:13:42.112Z,6.70
2019-02-22T20:16:11.783Z,10.72
2019-02-22T20:18:41.540Z,7.12
2019-02-22T20:21:11.107Z,7.87
2019-02-22T20:23:40.723Z,9.08
2019-02-22T20:26:10.345Z,5.60
2019-02-22T20:28:39.851Z,5.47
2019-02-22T20:31:19.969Z,5.65
2019-02-22T20:33:43.058Z,7.72
2019-02-22T20:36:12.624Z,4.92
2019-02-22T20:38:42.292Z,5.97
2019-02-22T20:41:12.079Z,8.95
2019-02-22T20:43:41.711Z,6.58
2019-02-22T20:46:11.410Z,7.12
2019-02-22T20:48:40.994Z,5.22
2019-02-22T20:51:10.592Z,7.87
2019-02-22T20:53:40.174Z,5.87
2019-02-22T20:56:09.777Z,10.75
2019-02-22T20:58:39.404Z,4.60
2019-02-22T21:01:14.813Z,4.42
2019-02-22T21:03:41.220Z,4.50
2019-02-22T21:06:11.143Z,6.78
2019-02-22T21:08:41.248Z,5.40
2019-02-22T21:11:15.399Z,4.95
2019-02-22T21:13:45.259Z,5.30
2019-02-22T21:16:15.266Z,4.72
2019-02-22T21:18:46.345Z,4.95
2019-02-22T21:21:16.450Z,6.00
2019-02-22T21:23:46.464Z,5.47
2019-02-22T21:26:16.734Z,4.70
2019-02-22T21:28:46.588Z,10.50
2019-02-22T21:31:16.731Z,4.67
2019-02-22T21:33:46.531Z,4.65
2019-02-22T21:36:16.361Z,6.20
2019-02-22T21:38:46.010Z,4.85
2019-02-22T21:41:16.527Z,13.50
2019-02-22T21:43:46.254Z,4.50
2019-02-22T21:46:16.005Z,7.33
2019-02-22T21:48:45.820Z,3.92
2019-02-22T21:51:15.583Z,5.12
2019-02-22T21:53:45.211Z,5.42
2019-02-22T21:56:15.027Z,4.55
2019-02-22T21:58:44.698Z,4.83
2019-02-22T22:01:14.377Z,5.60
2019-02-22T22:03:44.986Z,4.50
2019-02-22T22:06:14.586Z,4.03
2019-02-22T22:08:44.246Z,6.85
2019-02-22T22:11:14.931Z,4.87
2019-02-22T22:13:44.616Z,6.97
2019-02-22T22:16:14.349Z,7.70
2019-02-22T22:18:44.081Z,6.42
2019-02-22T22:21:13.750Z,6.17
2019-02-22T22:23:43.547Z,4.92
2019-02-22T22:26:13.185Z,7.67
2019-02-22T22:28:42.698Z,4.55
2019-02-22T22:31:12.239Z,5.70
2019-02-22T22:33:42.169Z,5.00
2019-02-22T22:36:11.776Z,5.00
2019-02-22T22:38:41.376Z,7.97
2019-02-22T22:41:11.016Z,4.10
2019-02-22T22:43:40.523Z,8.85
2019-02-22T22:46:10.043Z,6.53
2019-02-22T22:48:49.820Z,5.40
2019-02-22T22:51:10.872Z,4.70
2019-02-22T22:53:40.510Z,4.30
2019-02-22T22:56:10.175Z,4.70
2019-02-22T22:58:39.687Z,5.72
2019-02-22T23:01:11.832Z,9.68
2019-02-22T23:03:41.506Z,3.92
2019-02-22T23:06:11.151Z,4.45
2019-02-22T23:08:40.922Z,6.95
2019-02-22T23:11:11.794Z,11.12
2019-02-22T23:13:41.401Z,5.25
2019-02-22T23:16:11.429Z,6.72
2019-02-22T23:18:41.246Z,4.40
2019-02-22T23:21:11.121Z,4.47
2019-02-22T23:23:41.377Z,4.62
2019-02-22T23:26:11.041Z,4.42
2019-02-22T23:28:40.583Z,4.20
2019-02-22T23:31:10.187Z,4.05
2019-02-22T23:33:40.122Z,5.40
2019-02-22T23:36:09.840Z,4.45
2019-02-22T23:38:39.522Z,4.53
2019-02-22T23:41:09.539Z,4.05
2019-02-22T23:43:39.486Z,7.50
2019-02-22T23:46:10.405Z,5.50
2019-02-22T23:48:40.044Z,7.22
2019-02-22T23:51:09.587Z,4.67
2019-02-22T23:53:39.177Z,4.80
2019-02-22T23:56:10.179Z,4.42
2019-02-22T23:58:39.833Z,5.20
